createdAt,value
2022-10-01T00:02:08.296Z,100.00
2022-10-01T00:04:37.923Z,100.00
2022-10-01T00:07:09.299Z,100.00
2022-10-01T00:09:35.686Z,100.00
2022-10-01T00:12:02.962Z,100.00
2022-10-01T00:14:29.498Z,100.00
2022-10-01T00:16:55.953Z,100.00
2022-10-01T00:19:22.866Z,100.00
2022-10-01T00:21:49.539Z,100.00
2022-10-01T00:24:15.985Z,100.00
2022-10-01T00:26:42.930Z,100.00
2022-10-01T00:29:14.425Z,100.00
2022-10-01T00:31:41.144Z,100.00
2022-10-01T00:34:07.612Z,100.00
2022-10-01T00:36:34.715Z,100.00
2022-10-01T00:39:02.057Z,100.00
2022-10-01T00:41:31.941Z,100.00
2022-10-01T00:44:01.975Z,100.00
2022-10-01T00:46:40.603Z,100.00
2022-10-01T00:49:20.450Z,100.00
2022-10-01T00:51:52.412Z,100.00
2022-10-01T00:54:31.158Z,100.00
2022-10-01T00:56:59.459Z,100.00
2022-10-01T00:59:26.789Z,100.00
2022-10-01T01:01:54.049Z,100.00
2022-10-01T01:04:20.526Z,100.00
2022-10-01T01:06:55.812Z,100.00
2022-10-01T01:09:26.222Z,100.00
2022-10-01T01:11:58.402Z,100.00
2022-10-01T01:14:35.978Z,100.00
2022-10-01T01:17:10.802Z,100.00
2022-10-01T01:20:02.070Z,100.00
2022-10-01T01:22:34.637Z,100.00
2022-10-01T01:25:16.449Z,100.00
2022-10-01T01:27:50.122Z,100.00
2022-10-01T01:30:20.555Z,100.00
2022-10-01T01:32:54.053Z,100.00
2022-10-01T01:35:27.147Z,100.00
2022-10-01T01:37:58.720Z,100.00
2022-10-01T01:40:26.911Z,100.00
2022-10-01T01:42:55.587Z,100.00
2022-10-01T01:45:24.293Z,100.00
2022-10-01T01:47:56.004Z,100.00
2022-10-01T01:50:25.514Z,100.00
2022-10-01T01:52:53.934Z,100.00
2022-10-01T01:55:25.719Z,99.89
2022-10-01T01:57:53.135Z,98.99
2022-10-01T02:00:19.634Z,99.80
2022-10-01T02:02:52.799Z,99.13
2022-10-01T02:05:32.935Z,99.21
2022-10-01T02:08:12.761Z,100.00
2022-10-01T02:10:44.903Z,99.97
2022-10-01T02:13:33.551Z,100.00
2022-10-01T02:16:18.993Z,99.78
2022-10-01T02:19:04.283Z,99.47
2022-10-01T02:21:52.562Z,98.13
2022-10-01T02:24:39.294Z,99.38
2022-10-01T02:27:15.680Z,98.66
2022-10-01T02:29:45.164Z,98.08
2022-10-01T02:32:13.822Z,98.53
2022-10-01T02:34:40.941Z,98.74
2022-10-01T02:37:10.836Z,98.99
2022-10-01T02:39:41.385Z,100.00
2022-10-01T02:42:12.974Z,100.00
2022-10-01T02:44:42.578Z,100.00
2022-10-01T02:47:21.250Z,100.00
2022-10-01T02:49:48.990Z,100.00
2022-10-01T02:52:37.483Z,100.00
2022-10-01T02:55:05.520Z,99.87
2022-10-01T02:57:32.886Z,99.51
2022-10-01T03:00:03.095Z,100.00
2022-10-01T03:02:31.681Z,100.00
2022-10-01T03:04:58.906Z,100.00
2022-10-01T03:07:26.774Z,100.00
2022-10-01T03:09:53.536Z,99.80
2022-10-01T03:12:20.308Z,100.00
2022-10-01T03:14:46.816Z,100.00
2022-10-01T03:17:15.472Z,100.00
2022-10-01T03:19:42.698Z,99.78
2022-10-01T03:22:12.965Z,100.00
2022-10-01T03:24:39.376Z,99.90
2022-10-01T03:27:05.755Z,100.00
2022-10-01T03:29:32.146Z,100.00
2022-10-01T03:31:58.525Z,99.29
2022-10-01T03:34:25.060Z,99.74
2022-10-01T03:36:52.712Z,99.38
2022-10-01T03:39:19.764Z,99.41
2022-10-01T03:41:46.422Z,99.64
2022-10-01T03:44:13.043Z,99.99
2022-10-01T03:46:39.506Z,99.09
2022-10-01T03:49:05.914Z,99.54
2022-10-01T03:51:32.746Z,99.65
2022-10-01T03:53:59.440Z,98.93
2022-10-01T03:56:26.297Z,99.16
2022-10-01T03:58:52.721Z,99.89
2022-10-01T04:01:19.302Z,98.90
2022-10-01T04:03:46.311Z,98.91
2022-10-01T04:06:12.997Z,99.67
2022-10-01T04:08:39.474Z,98.92
2022-10-01T04:11:06.925Z,99.27
2022-10-01T04:13:34.606Z,99.42
2022-10-01T04:16:02.818Z,99.10
2022-10-01T04:18:29.478Z,99.01
2022-10-01T04:20:55.897Z,98.30
2022-10-01T04:23:22.625Z,98.94
2022-10-01T04:25:49.419Z,98.98
2022-10-01T04:28:16.114Z,99.29
2022-10-01T04:30:45.860Z,99.35
2022-10-01T04:33:14.777Z,98.76
2022-10-01T04:35:41.712Z,99.29
2022-10-01T04:38:16.934Z,98.83
2022-10-01T04:40:43.300Z,98.80
2022-10-01T04:43:12.465Z,99.12
2022-10-01T04:45:39.000Z,98.97
2022-10-01T04:48:05.893Z,99.88
2022-10-01T04:50:33.074Z,100.00
2022-10-01T04:52:59.486Z,99.54
2022-10-01T04:55:26.171Z,100.00
2022-10-01T04:57:52.574Z,99.60
2022-10-01T05:00:21.928Z,98.71
2022-10-01T05:02:49.542Z,99.48
2022-10-01T05:05:17.403Z,99.37
2022-10-01T05:07:43.918Z,98.69
2022-10-01T05:10:12.644Z,98.72
2022-10-01T05:12:38.949Z,97.80
2022-10-01T05:15:05.950Z,97.89
2022-10-01T05:17:34.471Z,98.76
2022-10-01T05:20:02.062Z,98.52
2022-10-01T05:22:28.703Z,99.28
2022-10-01T05:24:55.197Z,99.04
2022-10-01T05:27:21.596Z,98.79
2022-10-01T05:29:48.327Z,99.16
2022-10-01T05:32:15.907Z,99.19
2022-10-01T05:34:43.159Z,98.32
2022-10-01T05:37:10.905Z,99.20
2022-10-01T05:39:37.775Z,99.19
2022-10-01T05:42:06.530Z,98.79
2022-10-01T05:44:37.942Z,98.65
2022-10-01T05:47:07.700Z,98.26
2022-10-01T05:49:34.339Z,97.97
2022-10-01T05:52:01.141Z,98.27
2022-10-01T05:54:29.549Z,97.55
2022-10-01T05:56:58.991Z,97.70
2022-10-01T05:59:28.432Z,97.38
2022-10-01T06:01:57.992Z,97.41
2022-10-01T06:04:24.538Z,97.74
2022-10-01T06:06:51.077Z,97.86
2022-10-01T06:09:17.640Z,96.62
2022-10-01T06:11:44.151Z,96.40
2022-10-01T06:14:10.645Z,96.80
2022-10-01T06:16:37.131Z,97.08
2022-10-01T06:19:03.782Z,96.86
2022-10-01T06:21:31.837Z,96.40
2022-10-01T06:23:58.488Z,95.87
2022-10-01T06:26:25.048Z,96.25
2022-10-01T06:28:52.599Z,96.82
2022-10-01T06:31:19.676Z,96.15
2022-10-01T06:33:46.139Z,95.63
2022-10-01T06:36:12.562Z,95.44
2022-10-01T06:38:39.023Z,95.30
2022-10-01T06:41:05.696Z,94.91
2022-10-01T06:43:33.273Z,95.33
2022-10-01T06:46:04.802Z,94.98
2022-10-01T06:48:32.350Z,95.55
2022-10-01T06:50:59.390Z,95.14
2022-10-01T06:53:27.909Z,94.82
2022-10-01T06:55:55.290Z,94.98
2022-10-01T06:58:26.186Z,94.77
2022-10-01T07:00:58.482Z,94.69
2022-10-01T07:03:25.049Z,94.55
2022-10-01T07:05:51.550Z,94.26
2022-10-01T07:08:25.018Z,94.48
2022-10-01T07:10:51.408Z,94.04
2022-10-01T07:13:20.187Z,94.20
2022-10-01T07:15:46.853Z,94.01
2022-10-01T07:18:13.802Z,94.07
2022-10-01T07:20:40.996Z,93.92
2022-10-01T07:23:10.714Z,93.94
2022-10-01T07:25:38.882Z,93.77
2022-10-01T07:28:07.197Z,93.08
2022-10-01T07:30:41.171Z,92.17
2022-10-01T07:33:07.546Z,92.24
2022-10-01T07:35:37.674Z,92.00
2022-10-01T07:38:08.060Z,92.63
2022-10-01T07:40:35.000Z,92.59
2022-10-01T07:43:01.440Z,92.82
2022-10-01T07:45:28.910Z,93.58
2022-10-01T07:48:00.286Z,95.07
2022-10-01T07:50:30.491Z,94.65
2022-10-01T07:52:58.311Z,95.52
2022-10-01T07:55:27.045Z,96.64
2022-10-01T07:57:55.387Z,96.94
2022-10-01T08:00:23.781Z,97.72
2022-10-01T08:02:53.475Z,98.38
2022-10-01T08:05:21.959Z,99.93
2022-10-01T08:07:49.616Z,99.88
2022-10-01T08:10:17.961Z,100.00
2022-10-01T08:12:44.950Z,100.00
2022-10-01T08:15:13.870Z,100.00
2022-10-01T08:17:40.519Z,100.00
2022-10-01T08:20:09.117Z,100.00
2022-10-01T08:22:39.811Z,100.00
2022-10-01T08:25:08.357Z,100.00
2022-10-01T08:27:34.819Z,100.00
2022-10-01T08:30:01.452Z,100.00
2022-10-01T08:32:28.207Z,100.00
2022-10-01T08:34:59.892Z,100.00
2022-10-01T08:37:27.755Z,100.00
2022-10-01T08:39:55.209Z,100.00
2022-10-01T08:42:27.519Z,100.00
2022-10-01T08:44:54.059Z,100.00
2022-10-01T08:47:33.905Z,100.00
2022-10-01T08:50:24.980Z,100.00
2022-10-01T08:52:57.772Z,100.00
2022-10-01T08:55:31.879Z,100.00
2022-10-01T08:58:02.389Z,100.00
2022-10-01T09:00:32.519Z,100.00
2022-10-01T09:03:04.803Z,100.00
2022-10-01T09:05:46.110Z,100.00
2022-10-01T09:08:49.285Z,100.00
2022-10-01T09:11:42.091Z,100.00
2022-10-01T09:14:24.983Z,100.00
2022-10-01T09:17:10.795Z,100.00
2022-10-01T09:19:51.769Z,100.00
2022-10-01T09:22:40.116Z,100.00
2022-10-01T09:25:09.755Z,100.00
2022-10-01T09:27:38.226Z,100.00
2022-10-01T09:30:11.517Z,100.00
2022-10-01T09:32:45.295Z,100.00
2022-10-01T09:35:23.305Z,100.00
2022-10-01T09:38:17.901Z,100.00
2022-10-01T09:40:57.611Z,100.00
2022-10-01T09:43:29.936Z,100.00
2022-10-01T09:45:56.761Z,100.00
2022-10-01T09:48:34.152Z,100.00
2022-10-01T09:51:13.008Z,100.00
2022-10-01T09:53:45.898Z,100.00
2022-10-01T09:56:19.378Z,100.00
2022-10-01T09:58:50.126Z,100.00
2022-10-01T10:01:24.147Z,100.00
2022-10-01T10:03:55.646Z,100.00
2022-10-01T10:06:27.414Z,100.00
2022-10-01T10:08:56.923Z,100.00
2022-10-01T10:11:27.003Z,100.00
2022-10-01T10:13:58.332Z,100.00
2022-10-01T10:16:28.682Z,100.00
2022-10-01T10:18:58.803Z,100.00
2022-10-01T10:21:29.527Z,100.00
2022-10-01T10:24:00.831Z,100.00
2022-10-01T10:26:39.028Z,100.00
2022-10-01T10:29:08.588Z,100.00
2022-10-01T10:31:42.934Z,100.00
2022-10-01T10:34:18.588Z,100.00
2022-10-01T10:36:46.926Z,100.00
2022-10-01T10:39:23.840Z,100.00
2022-10-01T10:41:53.436Z,100.00
2022-10-01T10:44:24.269Z,100.00
2022-10-01T10:46:53.603Z,100.00
2022-10-01T10:49:47.947Z,100.00
2022-10-01T10:52:21.048Z,100.00
2022-10-01T10:54:49.620Z,100.00
2022-10-01T10:57:23.165Z,100.00
2022-10-01T11:00:12.635Z,99.92
2022-10-01T11:02:42.328Z,100.00
2022-10-01T11:05:24.491Z,100.00
2022-10-01T11:07:55.982Z,100.00
2022-10-01T11:10:33.423Z,99.60
2022-10-01T11:13:49.571Z,99.54
2022-10-01T11:16:34.518Z,100.00
2022-10-01T11:19:03.860Z,100.00
2022-10-01T11:21:48.395Z,100.00
2022-10-01T11:24:35.145Z,99.37
2022-10-01T11:27:01.467Z,99.25
2022-10-01T11:30:01.433Z,100.00
2022-10-01T11:32:38.991Z,99.15
2022-10-01T11:35:18.632Z,99.69
2022-10-01T11:37:51.118Z,100.00
2022-10-01T11:40:33.907Z,100.00
2022-10-01T11:43:05.556Z,100.00
2022-10-01T11:45:41.405Z,99.73
2022-10-01T11:48:18.022Z,99.24
2022-10-01T11:50:48.194Z,99.00
2022-10-01T11:53:33.677Z,99.17
2022-10-01T11:56:23.942Z,97.81
2022-10-01T11:59:06.122Z,97.67
2022-10-01T12:01:45.108Z,98.62
2022-10-01T12:04:52.443Z,100.00
2022-10-01T12:07:24.216Z,99.59
2022-10-01T12:09:55.352Z,98.61
2022-10-01T12:12:34.346Z,99.41
2022-10-01T12:15:39.297Z,98.81
2022-10-01T12:18:52.217Z,98.07
2022-10-01T12:21:31.275Z,98.44
2022-10-01T12:24:03.536Z,99.58
2022-10-01T12:27:04.959Z,99.68
2022-10-01T12:29:54.082Z,100.00
2022-10-01T12:32:39.074Z,100.00
2022-10-01T12:35:35.700Z,100.00
2022-10-01T12:38:25.204Z,100.00
2022-10-01T12:41:00.643Z,100.00
2022-10-01T12:43:36.020Z,100.00
2022-10-01T12:46:05.530Z,100.00
2022-10-01T12:48:38.031Z,100.00
2022-10-01T12:51:07.466Z,100.00
2022-10-01T12:53:40.263Z,100.00
2022-10-01T12:56:12.951Z,100.00
2022-10-01T12:59:21.425Z,100.00
2022-10-01T13:02:10.641Z,100.00
2022-10-01T13:04:56.663Z,100.00
2022-10-01T13:07:26.221Z,100.00
2022-10-01T13:10:05.667Z,100.00
2022-10-01T13:12:44.127Z,100.00
2022-10-01T13:15:16.795Z,100.00
2022-10-01T13:17:54.839Z,100.00
2022-10-01T13:20:38.064Z,100.00
2022-10-01T13:23:34.185Z,100.00
2022-10-01T13:26:20.079Z,100.00
2022-10-01T13:29:25.764Z,100.00
2022-10-01T13:32:01.246Z,100.00
2022-10-01T13:34:36.554Z,100.00
2022-10-01T13:37:29.482Z,100.00
2022-10-01T13:39:57.329Z,99.71
2022-10-01T13:42:27.204Z,100.00
2022-10-01T13:44:57.959Z,99.95
2022-10-01T13:47:25.382Z,98.96
2022-10-01T13:50:03.919Z,100.00
2022-10-01T13:52:31.865Z,99.89
2022-10-01T13:55:01.123Z,99.94
2022-10-01T13:57:27.533Z,100.00
2022-10-01T14:00:03.133Z,100.00
2022-10-01T14:02:35.958Z,100.00
2022-10-01T14:05:19.030Z,100.00
2022-10-01T14:07:50.252Z,100.00
2022-10-01T14:10:16.856Z,100.00
2022-10-01T14:13:05.402Z,99.80
2022-10-01T14:16:02.747Z,98.36
2022-10-01T14:18:42.882Z,98.20
2022-10-01T14:21:37.589Z,97.26
2022-10-01T14:24:25.691Z,97.10
2022-10-01T14:26:52.038Z,97.68
2022-10-01T14:30:03.185Z,98.11
2022-10-01T14:32:44.143Z,97.34
2022-10-01T14:35:32.959Z,97.07
2022-10-01T14:38:01.790Z,96.91
2022-10-01T14:40:49.356Z,97.55
2022-10-01T14:43:20.615Z,98.03
2022-10-01T14:46:02.151Z,98.28
2022-10-01T14:48:34.159Z,98.81
2022-10-01T14:51:03.482Z,98.68
2022-10-01T14:53:33.493Z,98.57
2022-10-01T14:56:05.555Z,98.45
2022-10-01T14:58:37.083Z,99.36
2022-10-01T15:01:05.479Z,99.40
2022-10-01T15:03:38.786Z,98.67
2022-10-01T15:06:13.128Z,98.68
2022-10-01T15:08:40.882Z,99.23
2022-10-01T15:11:22.095Z,99.61
2022-10-01T15:13:51.136Z,100.00
2022-10-01T15:16:20.485Z,100.00
2022-10-01T15:18:53.445Z,100.00
2022-10-01T15:21:24.580Z,100.00
2022-10-01T15:23:51.437Z,100.00
2022-10-01T15:26:27.469Z,100.00
2022-10-01T15:29:03.075Z,99.29
2022-10-01T15:31:30.194Z,99.39
2022-10-01T15:33:57.040Z,99.79
2022-10-01T15:36:23.558Z,98.77
2022-10-01T15:38:50.907Z,98.50
2022-10-01T15:41:33.408Z,99.05
2022-10-01T15:44:05.403Z,99.29
2022-10-01T15:46:34.785Z,99.31
2022-10-01T15:49:18.588Z,98.95
2022-10-01T15:52:19.308Z,99.12
2022-10-01T15:54:46.213Z,99.28
2022-10-01T15:57:21.893Z,99.01
2022-10-01T15:59:51.610Z,99.02
2022-10-01T16:02:25.723Z,99.14
2022-10-01T16:04:56.009Z,99.07
2022-10-01T16:07:29.618Z,99.13
2022-10-01T16:09:58.584Z,99.47
2022-10-01T16:12:27.994Z,99.97
2022-10-01T16:15:04.556Z,99.75
2022-10-01T16:17:36.922Z,99.11
2022-10-01T16:20:15.525Z,99.88
2022-10-01T16:22:43.419Z,100.00
2022-10-01T16:25:19.576Z,100.00
2022-10-01T16:27:48.724Z,100.00
2022-10-01T16:30:18.471Z,99.23
2022-10-01T16:32:45.668Z,99.13
2022-10-01T16:35:16.631Z,98.83
2022-10-01T16:37:45.404Z,98.61
2022-10-01T16:40:15.949Z,98.56
2022-10-01T16:42:44.007Z,99.05
2022-10-01T16:45:15.841Z,98.80
2022-10-01T16:47:42.868Z,98.57
2022-10-01T16:50:17.237Z,98.74
2022-10-01T16:52:43.904Z,98.39
2022-10-01T16:55:24.186Z,98.30
2022-10-01T16:57:53.544Z,98.37
2022-10-01T17:00:22.295Z,97.50
2022-10-01T17:02:48.785Z,97.94
2022-10-01T17:05:22.397Z,98.03
2022-10-01T17:07:49.487Z,98.10
2022-10-01T17:10:17.731Z,98.32
2022-10-01T17:12:47.749Z,98.46
2022-10-01T17:15:17.324Z,98.60
2022-10-01T17:17:45.262Z,97.76
2022-10-01T17:20:12.611Z,97.06
2022-10-01T17:22:39.448Z,97.35
2022-10-01T17:25:07.240Z,97.82
2022-10-01T17:27:33.831Z,97.78
2022-10-01T17:30:00.318Z,97.43
2022-10-01T17:32:27.116Z,97.55
2022-10-01T17:34:54.386Z,97.46
2022-10-01T17:37:23.871Z,97.07
2022-10-01T17:39:50.685Z,96.89
2022-10-01T17:42:18.055Z,96.75
2022-10-01T17:44:45.106Z,96.49
2022-10-01T17:47:12.191Z,95.90
2022-10-01T17:49:39.456Z,95.48
2022-10-01T17:52:05.920Z,95.21
2022-10-01T17:54:33.240Z,95.03
2022-10-01T17:56:59.703Z,95.40
2022-10-01T17:59:26.100Z,95.50
2022-10-01T18:01:53.225Z,95.57
2022-10-01T18:04:19.708Z,95.47
2022-10-01T18:06:48.486Z,92.24
2022-10-01T18:09:15.471Z,81.67
2022-10-01T18:11:41.948Z,80.07
2022-10-01T18:14:08.526Z,82.64
2022-10-01T18:16:35.447Z,83.89
2022-10-01T18:21:50.933Z,87.68
2022-10-01T18:24:17.390Z,89.19
2022-10-01T18:26:45.607Z,90.65
2022-10-01T18:29:18.265Z,91.41
2022-10-01T18:31:45.432Z,91.41
2022-10-01T18:34:19.410Z,89.10
2022-10-01T18:36:57.623Z,90.66
2022-10-01T18:39:49.101Z,92.92
2022-10-01T18:42:31.402Z,91.78
2022-10-01T18:45:01.099Z,89.82
2022-10-01T18:47:56.098Z,89.83
2022-10-01T18:50:36.770Z,91.55
2022-10-01T18:53:18.800Z,91.13
2022-10-01T18:55:52.540Z,91.17
2022-10-01T18:58:45.346Z,90.19
2022-10-01T19:01:21.391Z,91.51
2022-10-01T19:04:08.744Z,90.06
2022-10-01T19:07:12.715Z,91.40
2022-10-01T19:10:11.550Z,92.56
2022-10-01T19:13:00.963Z,93.35
2022-10-01T19:15:51.876Z,94.03
2022-10-01T19:18:32.324Z,94.15
2022-10-01T19:21:18.985Z,95.50
2022-10-01T19:24:06.070Z,97.12
2022-10-01T19:26:47.777Z,96.71
2022-10-01T19:29:28.149Z,97.56
2022-10-01T19:32:00.232Z,97.08
2022-10-01T19:34:45.278Z,96.68
2022-10-01T19:37:33.597Z,97.28
2022-10-01T19:40:13.003Z,99.05
2022-10-01T19:42:45.013Z,99.70
2022-10-01T19:45:29.950Z,100.00
2022-10-01T19:48:23.116Z,100.00
2022-10-01T19:50:55.612Z,100.00
2022-10-01T19:53:28.421Z,100.00
2022-10-01T19:55:59.237Z,100.00
2022-10-01T19:58:25.684Z,100.00
2022-10-01T20:00:57.120Z,100.00
2022-10-01T20:04:15.922Z,100.00
2022-10-01T20:06:46.159Z,100.00
2022-10-01T20:09:46.223Z,100.00
2022-10-01T20:12:30.928Z,100.00
2022-10-01T20:15:08.775Z,100.00
2022-10-01T20:17:58.358Z,100.00
2022-10-01T20:20:45.762Z,100.00
2022-10-01T20:23:49.871Z,100.00
2022-10-01T20:26:22.274Z,100.00
2022-10-01T20:29:10.545Z,100.00
2022-10-01T20:31:48.880Z,100.00
2022-10-01T20:34:36.669Z,100.00
2022-10-01T20:37:13.720Z,100.00
2022-10-01T20:39:47.936Z,100.00
2022-10-01T20:42:19.236Z,100.00
2022-10-01T20:44:46.222Z,100.00
2022-10-01T20:47:31.232Z,100.00
2022-10-01T20:50:09.531Z,100.00
2022-10-01T20:53:04.596Z,100.00
2022-10-01T20:55:39.005Z,100.00
2022-10-01T20:58:13.023Z,100.00
2022-10-01T21:00:41.433Z,100.00
2022-10-01T21:03:31.826Z,100.00
2022-10-01T21:06:06.995Z,100.00
2022-10-01T21:08:40.745Z,100.00
2022-10-01T21:11:28.331Z,100.00
2022-10-01T21:14:06.564Z,100.00
2022-10-01T21:16:50.993Z,100.00
2022-10-01T21:19:26.787Z,100.00
2022-10-01T21:21:55.262Z,100.00
2022-10-01T21:24:37.153Z,100.00
2022-10-01T21:27:48.040Z,100.00
2022-10-01T21:30:17.481Z,100.00
2022-10-01T21:33:03.218Z,100.00
2022-10-01T21:35:54.835Z,100.00
2022-10-01T21:38:52.669Z,100.00
2022-10-01T21:41:36.499Z,100.00
2022-10-01T21:44:18.116Z,100.00
2022-10-01T21:46:54.395Z,100.00
2022-10-01T21:49:24.379Z,100.00
2022-10-01T21:51:59.160Z,100.00
2022-10-01T21:54:31.680Z,100.00
2022-10-01T21:57:13.195Z,100.00
2022-10-01T21:59:58.227Z,100.00
2022-10-01T22:02:48.079Z,100.00
2022-10-01T22:05:37.345Z,100.00
2022-10-01T22:08:47.355Z,100.00
2022-10-01T22:11:23.602Z,100.00
2022-10-01T22:14:02.682Z,100.00
2022-10-01T22:16:38.638Z,100.00
2022-10-01T22:19:12.623Z,100.00
2022-10-01T22:21:44.638Z,100.00
2022-10-01T22:24:30.970Z,100.00
2022-10-01T22:27:18.947Z,100.00
2022-10-01T22:29:51.718Z,100.00
2022-10-01T22:32:22.263Z,100.00
2022-10-01T22:34:57.867Z,100.00
2022-10-01T22:37:50.926Z,100.00
2022-10-01T22:40:44.726Z,100.00
2022-10-01T22:43:12.906Z,100.00
2022-10-01T22:46:17.865Z,100.00
2022-10-01T22:49:14.723Z,100.00
2022-10-01T22:51:49.733Z,100.00
2022-10-01T22:54:23.881Z,100.00
2022-10-01T22:57:04.836Z,100.00
2022-10-01T22:59:43.872Z,100.00
2022-10-01T23:02:22.638Z,100.00
2022-10-01T23:05:14.727Z,100.00
2022-10-01T23:08:02.237Z,100.00
2022-10-01T23:10:41.954Z,100.00
2022-10-01T23:13:34.527Z,100.00
2022-10-01T23:16:18.095Z,100.00
2022-10-01T23:18:58.643Z,100.00
2022-10-01T23:21:45.350Z,100.00
2022-10-01T23:24:27.990Z,100.00
2022-10-01T23:27:16.406Z,100.00
2022-10-01T23:30:08.254Z,100.00
2022-10-01T23:32:40.805Z,100.00
2022-10-01T23:35:36.527Z,100.00
2022-10-01T23:38:30.883Z,100.00
2022-10-01T23:41:18.706Z,100.00
2022-10-01T23:43:48.155Z,100.00
2022-10-01T23:46:20.767Z,100.00
2022-10-01T23:48:56.263Z,100.00
2022-10-01T23:51:38.026Z,100.00
2022-10-01T23:54:27.195Z,100.00
2022-10-01T23:57:10.118Z,100.00
2022-10-01T23:59:59.647Z,100.00
